Time;durP1;ratioP1;P1;durP2;ratioP2;P2;SDS_P1;SDS_P2;PMS_P1;PMS_P2;Temp;Humidity;BMP_temperature;BMP_pressure;BME280_temperature;BME280_humidity;BME280_pressure;Samples;Min_cycle;Max_cycle;Signal;HPM_P1;HPM_P2
2023/04/10 00:00:05;;;;;;;28.77;15.67;;;;;;;;;;5010117;28;20423;-44
2023/04/10 00:02:31;;;;;;;22.70;15.10;;;;;;;;;;5014836;28;20432;-44
2023/04/10 00:04:58;;;;;;;23.60;15.07;;;;;;;;;;5026110;28;20656;-43
2023/04/10 00:07:24;;;;;;;30.50;17.03;;;;;;;;;;5017276;28;20439;-43
2023/04/10 00:09:50;;;;;;;26.87;16.90;;;;;;;;;;5013967;28;20469;-43
2023/04/10 00:12:16;;;;;;;25.67;14.33;;;;;;;;;;5014857;28;20419;-43
2023/04/10 00:14:42;;;;;;;20.77;14.10;;;;;;;;;;5013863;28;20423;-42
2023/04/10 00:17:08;;;;;;;23.27;14.53;;;;;;;;;;5014116;28;20855;-43
2023/04/10 00:19:34;;;;;;;26.83;15.97;;;;;;;;;;5014583;28;20922;-43
2023/04/10 00:22:00;;;;;;;27.50;16.95;;;;;;;;;;5012918;28;20443;-43
2023/04/10 00:24:26;;;;;;;21.97;14.53;;;;;;;;;;5014584;28;20258;-43
2023/04/10 00:26:52;;;;;;;25.48;16.00;;;;;;;;;;5014154;28;20423;-43
2023/04/10 00:29:18;;;;;;;25.60;15.30;;;;;;;;;;5014334;28;20178;-43
2023/04/10 00:31:44;;;;;;;28.17;16.30;;;;;;;;;;5014263;28;20549;-44
2023/04/10 00:34:10;;;;;;;29.77;16.90;;;;;;;;;;5014173;28;20517;-44
2023/04/10 00:36:36;;;;;;;27.42;18.52;;;;;;;;;;5011580;28;20461;-43
2023/04/10 00:39:02;;;;;;;29.97;18.00;;;;;;;;;;5014150;28;20577;-43
2023/04/10 00:41:28;;;;;;;32.67;19.42;;;;;;;;;;5014106;28;20411;-44
2023/04/10 00:43:58;;;;;;;26.70;17.43;;;;;;;;;;5012825;28;20779;-43
2023/04/10 00:46:24;;;;;;;33.38;18.95;;;;;;;;;;5014179;28;20430;-43
2023/04/10 00:48:52;;;;;;;27.98;19.10;;;;;;;;;;5013720;28;20201;-43
2023/04/10 00:51:21;;;;;;;32.47;20.17;;;;;;;;;;5012629;28;20338;-44
2023/04/10 00:53:49;;;;;;;34.40;21.67;;;;;;;;;;5013930;28;20407;-44
2023/04/10 00:56:16;;;;;;;37.03;20.60;;;;;;;;;;5009335;28;20168;-43
2023/04/10 00:58:42;;;;;;;36.53;20.75;;;;;;;;;;5013202;28;20204;-44
2023/04/10 01:01:08;;;;;;;39.03;20.90;;;;;;;;;;5013655;28;20168;-43
2023/04/10 01:03:34;;;;;;;38.40;22.27;;;;;;;;;;5011326;28;20509;-43
2023/04/10 01:06:05;;;;;;;37.97;21.08;;;;;;;;;;5020953;28;20420;-45
2023/04/10 01:08:47;;;;;;;34.00;19.65;;;;;;;;;;5010449;28;20193;-44
2023/04/10 01:11:17;;;;;;;29.98;20.70;;;;;;;;;;5013294;28;20206;-43
2023/04/10 01:13:50;;;;;;;39.05;24.08;;;;;;;;;;5013378;28;20548;-42
2023/04/10 01:16:36;;;;;;;32.63;21.00;;;;;;;;;;5008597;28;20175;-43
2023/04/10 01:19:07;;;;;;;41.63;24.23;;;;;;;;;;5007015;28;20426;-43
2023/04/10 01:21:35;;;;;;;37.60;22.83;;;;;;;;;;5010174;28;20172;-44
2023/04/10 01:24:07;;;;;;;38.35;21.98;;;;;;;;;;5008898;28;20521;-43
2023/04/10 01:26:39;;;;;;;35.45;20.85;;;;;;;;;;5013420;28;20807;-43
2023/04/10 01:29:10;;;;;;;34.85;20.70;;;;;;;;;;5013064;28;20176;-43
2023/04/10 01:31:38;;;;;;;43.22;23.38;;;;;;;;;;5011927;28;20203;-44
2023/04/10 01:34:06;;;;;;;33.80;22.75;;;;;;;;;;5012970;28;20172;-44
2023/04/10 01:36:36;;;;;;;41.50;23.15;;;;;;;;;;5010793;28;20175;-44
2023/04/10 01:39:02;;;;;;;40.10;21.60;;;;;;;;;;5008338;28;20181;-43
2023/04/10 01:41:28;;;;;;;35.63;21.13;;;;;;;;;;5013046;28;20411;-42
2023/04/10 01:43:55;;;;;;;45.50;24.45;;;;;;;;;;5013070;28;20410;-43
2023/04/10 01:46:21;;;;;;;51.05;25.77;;;;;;;;;;5011643;28;20177;-43
2023/04/10 01:48:48;;;;;;;39.50;23.55;;;;;;;;;;5009316;28;20567;-43
2023/04/10 01:51:15;;;;;;;40.80;23.73;;;;;;;;;;5012901;28;20196;-44
2023/04/10 01:53:44;;;;;;;41.65;23.65;;;;;;;;;;5012869;28;20164;-43
2023/04/10 01:56:10;;;;;;;41.40;23.83;;;;;;;;;;5012670;28;20644;-43
2023/04/10 01:58:36;;;;;;;38.83;22.77;;;;;;;;;;5012478;28;20207;-43
2023/04/10 02:01:02;;;;;;;44.55;24.95;;;;;;;;;;5011446;28;20180;-43
2023/04/10 02:03:28;;;;;;;39.13;23.40;;;;;;;;;;5012707;28;20192;-44
2023/04/10 02:06:01;;;;;;;46.63;24.67;;;;;;;;;;5007412;28;20435;-44
2023/04/10 02:08:32;;;;;;;35.75;22.63;;;;;;;;;;5008394;28;20453;-43
2023/04/10 02:11:07;;;;;;;46.13;24.13;;;;;;;;;;5006264;28;20192;-43
2023/04/10 02:13:35;;;;;;;36.85;21.27;;;;;;;;;;5011263;28;20701;-44
2023/04/10 02:16:02;;;;;;;37.67;22.00;;;;;;;;;;5012506;28;20247;-43
2023/04/10 02:18:29;;;;;;;38.88;22.52;;;;;;;;;;5012391;28;20188;-43
2023/04/10 02:20:55;;;;;;;32.65;20.73;;;;;;;;;;5012651;28;20176;-43
2023/04/10 02:23:21;;;;;;;33.28;20.90;;;;;;;;;;5012383;28;20227;-43
2023/04/10 02:25:47;;;;;;;30.85;19.55;;;;;;;;;;5012287;28;20172;-43
2023/04/10 02:28:13;;;;;;;24.07;16.23;;;;;;;;;;5010694;28;20188;-43
2023/04/10 02:30:39;;;;;;;29.00;18.07;;;;;;;;;;5012321;28;20473;-43
2023/04/10 02:33:05;;;;;;;56.83;23.57;;;;;;;;;;5012125;28;20415;-43
2023/04/10 02:35:31;;;;;;;35.83;20.10;;;;;;;;;;5012255;28;20415;-44
2023/04/10 02:37:57;;;;;;;34.05;20.30;;;;;;;;;;5009602;28;20454;-43
2023/04/10 02:40:23;;;;;;;37.60;20.30;;;;;;;;;;5012209;28;20176;-44
2023/04/10 02:42:49;;;;;;;32.55;18.90;;;;;;;;;;5011771;28;20749;-43
2023/04/10 02:45:15;;;;;;;31.37;19.30;;;;;;;;;;5012068;28;20552;-43
2023/04/10 02:47:41;;;;;;;28.23;17.43;;;;;;;;;;5011817;28;20427;-43
2023/04/10 02:50:07;;;;;;;33.30;19.02;;;;;;;;;;5012061;28;20447;-43
2023/04/10 02:52:33;;;;;;;36.50;20.23;;;;;;;;;;5011930;28;20648;-43
2023/04/10 02:54:59;;;;;;;45.33;22.60;;;;;;;;;;5011882;28;20266;-42
2023/04/10 02:57:26;;;;;;;30.25;19.98;;;;;;;;;;5011605;28;20463;-44
2023/04/10 02:59:52;;;;;;;29.48;18.77;;;;;;;;;;5012604;28;20282;-43
2023/04/10 03:02:18;;;;;;;32.90;20.20;;;;;;;;;;5016041;28;20172;-43
2023/04/10 03:04:44;;;;;;;31.75;19.75;;;;;;;;;;5015946;28;20171;-44
2023/04/10 03:07:10;;;;;;;36.83;21.03;;;;;;;;;;5013969;28;20727;-43
2023/04/10 03:09:36;;;;;;;36.10;20.77;;;;;;;;;;5020000;28;20544;-43
2023/04/10 03:12:02;;;;;;;37.23;21.40;;;;;;;;;;5015747;28;20451;-43
2023/04/10 03:14:28;;;;;;;33.60;21.03;;;;;;;;;;5016003;28;20795;-43
2023/04/10 03:16:54;;;;;;;30.52;18.10;;;;;;;;;;5015346;28;20422;-43
2023/04/10 03:19:20;;;;;;;33.58;19.40;;;;;;;;;;5015732;28;20203;-44
2023/04/10 03:21:46;;;;;;;33.83;18.50;;;;;;;;;;5015467;28;20686;-43
2023/04/10 03:24:12;;;;;;;32.47;19.10;;;;;;;;;;5014824;28;20403;-44
2023/04/10 03:26:38;;;;;;;31.60;19.63;;;;;;;;;;5015197;28;20418;-44
2023/04/10 03:29:04;;;;;;;30.00;18.73;;;;;;;;;;5015251;28;20160;-43
2023/04/10 03:31:30;;;;;;;23.80;16.47;;;;;;;;;;5015593;28;20258;-43
2023/04/10 03:33:56;;;;;;;25.63;17.05;;;;;;;;;;5013051;28;20494;-43
2023/04/10 03:36:22;;;;;;;31.80;17.97;;;;;;;;;;5015522;28;20199;-43
2023/04/10 03:38:48;;;;;;;31.47;16.73;;;;;;;;;;5017888;28;20458;-44
2023/04/10 03:41:14;;;;;;;34.53;16.97;;;;;;;;;;5020622;28;20415;-44
2023/04/10 03:43:40;;;;;;;26.85;16.75;;;;;;;;;;5015551;28;20456;-43
2023/04/10 03:46:06;;;;;;;33.33;18.17;;;;;;;;;;5015186;28;20207;-44
2023/04/10 03:48:32;;;;;;;30.67;17.85;;;;;;;;;;5014776;28;20450;-43
2023/04/10 03:50:58;;;;;;;25.88;17.40;;;;;;;;;;5014962;28;20223;-44
2023/04/10 03:53:24;;;;;;;29.23;17.40;;;;;;;;;;5014281;28;20640;-44
2023/04/10 03:55:53;;;;;;;33.95;18.48;;;;;;;;;;5012556;28;20415;-43
2023/04/10 03:58:19;;;;;;;24.90;16.40;;;;;;;;;;5014687;28;20197;-43
2023/04/10 04:00:45;;;;;;;28.10;17.03;;;;;;;;;;5014861;28;20417;-42
2023/04/10 04:03:11;;;;;;;25.20;16.37;;;;;;;;;;5015170;28;20462;-44
2023/04/10 04:05:37;;;;;;;28.57;17.77;;;;;;;;;;5014078;28;20418;-43
2023/04/10 04:08:05;;;;;;;31.70;18.58;;;;;;;;;;5014849;28;20775;-44
2023/04/10 04:10:31;;;;;;;35.40;19.83;;;;;;;;;;5015371;28;20291;-45
2023/04/10 04:12:57;;;;;;;32.57;19.17;;;;;;;;;;5017126;28;20952;-44
2023/04/10 04:15:23;;;;;;;28.00;18.43;;;;;;;;;;5014782;28;20699;-43
2023/04/10 04:17:49;;;;;;;32.58;17.95;;;;;;;;;;5014374;28;20459;-43
2023/04/10 04:20:15;;;;;;;27.70;17.60;;;;;;;;;;5014020;28;20172;-44
2023/04/10 04:22:41;;;;;;;27.83;16.77;;;;;;;;;;5014447;28;20669;-43
2023/04/10 04:25:10;;;;;;;29.40;17.33;;;;;;;;;;5009613;28;20260;-43
2023/04/10 04:27:36;;;;;;;28.73;17.52;;;;;;;;;;5011432;28;20848;-42
2023/04/10 04:30:02;;;;;;;28.47;18.17;;;;;;;;;;5014574;28;20251;-42
2023/04/10 04:32:28;;;;;;;29.15;16.30;;;;;;;;;;5012068;28;20929;-43
2023/04/10 04:34:54;;;;;;;30.70;17.20;;;;;;;;;;5010141;28;20173;-43
2023/04/10 04:37:20;;;;;;;27.07;15.97;;;;;;;;;;5013538;28;20856;-45
2023/04/10 04:39:45;;;;;;;37.77;18.20;;;;;;;;;;5006767;28;20424;-44
2023/04/10 04:42:11;;;;;;;27.83;16.90;;;;;;;;;;5013348;28;20411;-44
2023/04/10 04:44:37;;;;;;;31.73;17.00;;;;;;;;;;5011592;28;20412;-44
2023/04/10 04:47:03;;;;;;;30.40;17.20;;;;;;;;;;5013578;28;21108;-44
2023/04/10 04:49:29;;;;;;;35.87;17.80;;;;;;;;;;5013967;28;20753;-44
2023/04/10 04:51:55;;;;;;;28.93;17.03;;;;;;;;;;5013493;28;20451;-44
2023/04/10 04:54:21;;;;;;;29.07;16.50;;;;;;;;;;5013771;28;20899;-44
2023/04/10 04:56:47;;;;;;;32.93;15.80;;;;;;;;;;5013073;28;20833;-44
2023/04/10 04:59:13;;;;;;;27.53;16.23;;;;;;;;;;5013125;28;20411;-44
2023/04/10 05:01:39;;;;;;;29.43;16.90;;;;;;;;;;5009928;28;20405;-44
2023/04/10 05:04:05;;;;;;;29.07;17.43;;;;;;;;;;5013707;28;20435;-44
2023/04/10 05:06:31;;;;;;;23.48;16.48;;;;;;;;;;5013412;28;20412;-44
2023/04/10 05:08:57;;;;;;;23.43;14.93;;;;;;;;;;5016843;28;20176;-44
2023/04/10 05:11:23;;;;;;;37.20;17.27;;;;;;;;;;5019946;28;20464;-44
2023/04/10 05:13:49;;;;;;;27.70;16.00;;;;;;;;;;5011394;28;20423;-44
2023/04/10 05:16:15;;;;;;;23.60;14.03;;;;;;;;;;5013432;28;20420;-44
2023/04/10 05:18:41;;;;;;;21.03;13.23;;;;;;;;;;5012889;28;20493;-44
2023/04/10 05:21:07;;;;;;;27.70;16.80;;;;;;;;;;5009688;28;20416;-44
2023/04/10 05:23:33;;;;;;;24.90;15.67;;;;;;;;;;5009471;28;20499;-44
2023/04/10 05:25:59;;;;;;;27.07;15.80;;;;;;;;;;5013227;28;20420;-44
2023/04/10 05:28:25;;;;;;;25.80;15.33;;;;;;;;;;5012722;28;20428;-44
2023/04/10 05:30:51;;;;;;;24.20;14.37;;;;;;;;;;5012993;28;20464;-44
2023/04/10 05:33:17;;;;;;;25.90;14.80;;;;;;;;;;5015106;28;20758;-44
2023/04/10 05:35:43;;;;;;;22.73;15.77;;;;;;;;;;5014285;28;20411;-44
2023/04/10 05:38:09;;;;;;;19.40;13.33;;;;;;;;;;5012378;28;20443;-44
2023/04/10 05:40:35;;;;;;;25.47;14.33;;;;;;;;;;5010619;28;20933;-44
2023/04/10 05:43:01;;;;;;;21.10;13.90;;;;;;;;;;5014024;28;20429;-44
2023/04/10 05:45:27;;;;;;;23.43;14.77;;;;;;;;;;5009610;28;20416;-44
2023/04/10 05:47:53;;;;;;;23.47;14.47;;;;;;;;;;5012810;28;20435;-44
2023/04/10 05:50:19;;;;;;;21.73;14.77;;;;;;;;;;5012367;28;20456;-44
2023/04/10 05:52:45;;;;;;;22.00;14.10;;;;;;;;;;5012555;28;20984;-44
2023/04/10 05:55:11;;;;;;;19.23;13.93;;;;;;;;;;5012471;28;20413;-44
2023/04/10 05:57:38;;;;;;;26.77;14.57;;;;;;;;;;5012393;28;20522;-44
2023/04/10 06:00:04;;;;;;;22.70;14.40;;;;;;;;;;5012498;28;20409;-44
2023/04/10 06:02:31;;;;;;;17.77;13.30;;;;;;;;;;5012439;28;20407;-44
2023/04/10 06:04:57;;;;;;;24.63;13.77;;;;;;;;;;5010458;28;20785;-44
2023/04/10 06:07:23;;;;;;;27.63;14.47;;;;;;;;;;5012238;28;20440;-44
2023/04/10 06:09:50;;;;;;;24.33;15.30;;;;;;;;;;5014394;28;20451;-44
2023/04/10 06:12:16;;;;;;;27.73;15.27;;;;;;;;;;5012225;28;20460;-44
2023/04/10 06:14:42;;;;;;;22.93;14.33;;;;;;;;;;5009673;28;20426;-44
2023/04/10 06:17:08;;;;;;;18.40;12.40;;;;;;;;;;5011876;28;20487;-44
2023/04/10 06:19:34;;;;;;;23.30;13.37;;;;;;;;;;5011898;28;20416;-44
2023/04/10 06:22:00;;;;;;;18.63;13.20;;;;;;;;;;5004581;28;20418;-45
2023/04/10 06:24:26;;;;;;;20.10;12.50;;;;;;;;;;5010793;28;20414;-44
2023/04/10 06:26:52;;;;;;;19.63;12.27;;;;;;;;;;5011746;28;20415;-44
2023/04/10 06:29:17;;;;;;;15.10;10.73;;;;;;;;;;5012088;28;20508;-44
2023/04/10 06:31:44;;;;;;;20.60;11.10;;;;;;;;;;5011828;28;20454;-44
2023/04/10 06:34:09;;;;;;;17.13;11.30;;;;;;;;;;5011076;28;20820;-44
2023/04/10 06:36:35;;;;;;;17.57;10.43;;;;;;;;;;5011664;28;20827;-44
2023/04/10 06:39:01;;;;;;;14.57;11.30;;;;;;;;;;5011658;28;20450;-44
2023/04/10 06:41:27;;;;;;;19.30;10.17;;;;;;;;;;5010947;28;20489;-44
2023/04/10 06:43:53;;;;;;;12.50;8.80;;;;;;;;;;5012204;28;20844;-44
2023/04/10 06:46:19;;;;;;;11.80;8.70;;;;;;;;;;5011739;28;20419;-45
2023/04/10 06:48:45;;;;;;;13.07;9.03;;;;;;;;;;5011360;28;20439;-45
2023/04/10 06:51:11;;;;;;;12.03;8.60;;;;;;;;;;5011717;28;20825;-44
2023/04/10 06:53:37;;;;;;;13.50;7.87;;;;;;;;;;5011658;28;20460;-44
2023/04/10 06:56:03;;;;;;;9.07;6.40;;;;;;;;;;5010488;28;20918;-44
2023/04/10 06:58:30;;;;;;;12.50;6.47;;;;;;;;;;5011403;28;20848;-44
2023/04/10 07:00:57;;;;;;;6.50;5.63;;;;;;;;;;5007355;28;20411;-45
2023/04/10 07:03:23;;;;;;;8.00;6.47;;;;;;;;;;5011563;28;20423;-44
2023/04/10 07:05:49;;;;;;;8.10;6.37;;;;;;;;;;5011560;28;20855;-45
2023/04/10 07:08:15;;;;;;;7.67;6.37;;;;;;;;;;5010881;28;20438;-44
2023/04/10 07:10:41;;;;;;;7.43;5.73;;;;;;;;;;5010313;28;20501;-44
2023/04/10 07:13:07;;;;;;;7.93;5.63;;;;;;;;;;5017034;28;20455;-44
2023/04/10 07:15:33;;;;;;;6.97;5.93;;;;;;;;;;5011447;28;20492;-44
2023/04/10 07:17:59;;;;;;;5.60;5.10;;;;;;;;;;5011157;28;20436;-44
2023/04/10 07:20:25;;;;;;;5.93;5.30;;;;;;;;;;5011554;28;20425;-45
2023/04/10 07:22:51;;;;;;;6.40;5.80;;;;;;;;;;5006405;28;20473;-45
2023/04/10 07:25:17;;;;;;;5.73;4.83;;;;;;;;;;5011209;28;20756;-45
2023/04/10 07:27:43;;;;;;;5.60;5.00;;;;;;;;;;5007331;28;20455;-44
2023/04/10 07:30:09;;;;;;;6.33;5.47;;;;;;;;;;5007894;28;20487;-44
2023/04/10 07:32:36;;;;;;;5.77;5.27;;;;;;;;;;5008407;28;20378;-45
2023/04/10 07:35:02;;;;;;;6.53;5.80;;;;;;;;;;5011307;28;20939;-45
2023/04/10 07:37:28;;;;;;;4.80;4.40;;;;;;;;;;5010483;28;20511;-44
2023/04/10 07:39:54;;;;;;;4.63;4.23;;;;;;;;;;5013987;28;20636;-44
2023/04/10 07:42:20;;;;;;;7.83;5.30;;;;;;;;;;5012127;28;20429;-44
2023/04/10 07:44:46;;;;;;;5.33;4.83;;;;;;;;;;5011075;28;20949;-44
2023/04/10 07:47:12;;;;;;;5.63;4.80;;;;;;;;;;5013163;28;20466;-45
2023/04/10 07:49:38;;;;;;;4.90;4.40;;;;;;;;;;5014346;28;20373;-44
2023/04/10 07:52:04;;;;;;;6.00;5.10;;;;;;;;;;5013435;28;20965;-44
2023/04/10 07:54:33;;;;;;;5.33;4.50;;;;;;;;;;5014328;28;20419;-44
2023/04/10 07:57:00;;;;;;;4.57;4.17;;;;;;;;;;5014327;28;20423;-44
2023/04/10 07:59:27;;;;;;;4.57;4.17;;;;;;;;;;5014549;28;20943;-45
2023/04/10 08:01:53;;;;;;;4.53;4.13;;;;;;;;;;5014492;28;20805;-45
2023/04/10 08:04:19;;;;;;;4.20;3.80;;;;;;;;;;5014357;28;20482;-44
2023/04/10 08:06:45;;;;;;;5.43;4.87;;;;;;;;;;5014199;28;20421;-45
2023/04/10 08:09:11;;;;;;;5.40;4.90;;;;;;;;;;5014223;28;20392;-44
2023/04/10 08:11:37;;;;;;;4.93;4.27;;;;;;;;;;5017282;28;20457;-45
2023/04/10 08:14:04;;;;;;;4.77;4.27;;;;;;;;;;5007701;28;20903;-45
2023/04/10 08:16:31;;;;;;;4.27;3.87;;;;;;;;;;5013431;28;20398;-44
2023/04/10 08:18:58;;;;;;;5.73;4.43;;;;;;;;;;5008471;28;20458;-44
2023/04/10 08:21:25;;;;;;;4.43;4.03;;;;;;;;;;5014253;28;20419;-44
2023/04/10 08:23:52;;;;;;;4.30;3.90;;;;;;;;;;5013949;28;20401;-44
2023/04/10 08:26:18;;;;;;;4.87;4.43;;;;;;;;;;5013887;28;20425;-45
2023/04/10 08:28:48;;;;;;;4.23;3.93;;;;;;;;;;5012910;28;20434;-44
2023/04/10 08:31:14;;;;;;;4.47;4.07;;;;;;;;;;5014055;28;20833;-44
2023/04/10 08:33:40;;;;;;;4.53;4.20;;;;;;;;;;5013388;28;20462;-45
2023/04/10 08:36:06;;;;;;;4.87;4.37;;;;;;;;;;5012945;28;20389;-45
2023/04/10 08:38:32;;;;;;;4.47;4.17;;;;;;;;;;5013172;28;20448;-45
2023/04/10 08:40:58;;;;;;;4.77;4.37;;;;;;;;;;5018616;28;20436;-44
2023/04/10 08:43:25;;;;;;;4.17;3.77;;;;;;;;;;5013790;28;20477;-44
2023/04/10 08:45:52;;;;;;;4.07;3.77;;;;;;;;;;5013614;28;20996;-45
2023/04/10 08:48:21;;;;;;;5.23;4.73;;;;;;;;;;5013402;28;20477;-45
2023/04/10 08:50:47;;;;;;;5.20;4.03;;;;;;;;;;5015957;28;20451;-45
2023/04/10 08:53:14;;;;;;;4.13;3.80;;;;;;;;;;5014213;28;20895;-45
2023/04/10 08:55:40;;;;;;;4.60;4.20;;;;;;;;;;5000509;28;20415;-45
2023/04/10 08:58:07;;;;;;;5.43;4.13;;;;;;;;;;5005788;28;20426;-45
2023/04/10 09:00:34;;;;;;;5.17;4.67;;;;;;;;;;5010923;28;20899;-45
2023/04/10 09:03:03;;;;;;;6.77;5.73;;;;;;;;;;5011806;28;20489;-45
2023/04/10 09:05:29;;;;;;;4.33;3.93;;;;;;;;;;5013288;28;20516;-45
2023/04/10 09:07:55;;;;;;;4.30;3.90;;;;;;;;;;5013015;28;20928;-45
2023/04/10 09:10:22;;;;;;;4.10;3.80;;;;;;;;;;5012622;28;20455;-45
2023/04/10 09:12:49;;;;;;;4.60;4.30;;;;;;;;;;5006835;28;20525;-44
2023/04/10 09:15:15;;;;;;;4.37;4.07;;;;;;;;;;5013070;28;20444;-45
2023/04/10 09:17:55;;;;;;;3.90;3.60;;;;;;;;;;5012759;28;20439;-45
2023/04/10 09:20:21;;;;;;;3.73;3.43;;;;;;;;;;5013706;28;20437;-45
2023/04/10 09:22:47;;;;;;;3.60;3.30;;;;;;;;;;5012906;28;20946;-45
2023/04/10 09:25:30;;;;;;;4.00;3.60;;;;;;;;;;5013215;28;20424;-45
2023/04/10 09:28:03;;;;;;;3.97;3.63;;;;;;;;;;5012306;28;20423;-45
2023/04/10 09:30:39;;;;;;;3.70;3.40;;;;;;;;;;5011127;28;20427;-45
2023/04/10 09:33:21;;;;;;;3.60;3.40;;;;;;;;;;5006525;28;20442;-45
2023/04/10 09:35:47;;;;;;;4.30;3.40;;;;;;;;;;5011704;28;20407;-45
2023/04/10 09:38:14;;;;;;;3.50;3.30;;;;;;;;;;5012302;28;20415;-45
2023/04/10 09:40:40;;;;;;;3.70;3.40;;;;;;;;;;5012428;28;20831;-45
2023/04/10 09:43:23;;;;;;;3.13;2.87;;;;;;;;;;5021105;28;20456;-45
2023/04/10 09:45:49;;;;;;;3.73;3.43;;;;;;;;;;5013489;28;20410;-45
2023/04/10 09:48:15;;;;;;;3.53;3.23;;;;;;;;;;5012322;28;20525;-46
2023/04/10 09:50:41;;;;;;;3.60;3.40;;;;;;;;;;5012582;28;20460;-45
2023/04/10 09:53:10;;;;;;;3.77;3.20;;;;;;;;;;5012454;28;20419;-45
2023/04/10 09:55:37;;;;;;;3.60;3.30;;;;;;;;;;5012501;28;20940;-45
2023/04/10 09:58:06;;;;;;;4.10;3.80;;;;;;;;;;5011304;28;20431;-46
2023/04/10 10:00:36;;;;;;;3.87;3.57;;;;;;;;;;5017041;28;20394;-45
2023/04/10 10:03:05;;;;;;;3.43;3.23;;;;;;;;;;5009361;28;20397;-45
2023/04/10 10:05:31;;;;;;;3.53;3.20;;;;;;;;;;5012394;28;20420;-45
2023/04/10 10:07:58;;;;;;;3.67;3.37;;;;;;;;;;5011956;28;21002;-45
2023/04/10 10:10:25;;;;;;;3.37;3.10;;;;;;;;;;5012202;28;20806;-45
2023/04/10 10:12:54;;;;;;;3.47;3.23;;;;;;;;;;5010411;28;20417;-45
2023/04/10 10:15:20;;;;;;;3.43;3.13;;;;;;;;;;5012305;28;20421;-45
2023/04/10 10:17:50;;;;;;;2.73;2.53;;;;;;;;;;5011742;28;20892;-45
2023/04/10 10:20:17;;;;;;;3.27;3.07;;;;;;;;;;5010868;28;20437;-45
2023/04/10 10:22:44;;;;;;;6.30;2.97;;;;;;;;;;5013695;28;20497;-45
2023/04/10 10:25:12;;;;;;;3.43;3.00;;;;;;;;;;5012054;28;20408;-45
2023/04/10 10:27:39;;;;;;;3.03;2.80;;;;;;;;;;5010051;28;20521;-45
2023/04/10 10:30:06;;;;;;;3.50;3.20;;;;;;;;;;5011838;28;20911;-45
2023/04/10 10:32:33;;;;;;;3.40;3.10;;;;;;;;;;5011917;28;20410;-45
2023/04/10 10:35:00;;;;;;;2.80;2.60;;;;;;;;;;5012023;28;20410;-45
2023/04/10 10:37:28;;;;;;;3.60;3.30;;;;;;;;;;5012452;28;20449;-45
2023/04/10 10:40:07;;;;;;;3.00;2.80;;;;;;;;;;5011505;28;20416;-45
2023/04/10 10:42:40;;;;;;;3.03;2.83;;;;;;;;;;5015493;28;20496;-45
2023/04/10 10:45:09;;;;;;;3.57;3.27;;;;;;;;;;5013929;28;20511;-44
2023/04/10 10:47:39;;;;;;;3.23;3.03;;;;;;;;;;5012059;28;20450;-45
2023/04/10 10:50:05;;;;;;;3.60;3.30;;;;;;;;;;5003487;28;20403;-45
2023/04/10 10:52:38;;;;;;;3.10;2.90;;;;;;;;;;5010133;28;20854;-44
2023/04/10 10:55:26;;;;;;;3.40;3.20;;;;;;;;;;5010130;28;20450;-45
2023/04/10 10:57:53;;;;;;;3.33;3.13;;;;;;;;;;5010994;28;20574;-45
2023/04/10 11:00:22;;;;;;;3.60;3.30;;;;;;;;;;5011602;28;20414;-45
2023/04/10 11:03:06;;;;;;;3.67;3.00;;;;;;;;;;5011432;28;20503;-45
2023/04/10 11:05:51;;;;;;;3.40;3.17;;;;;;;;;;5011668;28;20413;-45
2023/04/10 11:08:17;;;;;;;3.90;3.50;;;;;;;;;;5006195;28;20426;-45
2023/04/10 11:10:59;;;;;;;4.20;3.80;;;;;;;;;;5010215;28;20848;-45
2023/04/10 11:13:25;;;;;;;3.50;3.30;;;;;;;;;;5011547;28;20783;-45
2023/04/10 11:15:51;;;;;;;3.37;3.17;;;;;;;;;;5012383;28;20511;-45
2023/04/10 11:18:19;;;;;;;3.97;3.67;;;;;;;;;;5005076;28;20438;-44
2023/04/10 11:21:04;;;;;;;3.40;3.20;;;;;;;;;;5011936;28;20784;-45
2023/04/10 11:23:30;;;;;;;3.40;3.20;;;;;;;;;;5014042;28;20463;-45
2023/04/10 11:25:56;;;;;;;3.00;2.80;;;;;;;;;;5007347;28;20907;-45
2023/04/10 11:28:31;;;;;;;3.50;3.20;;;;;;;;;;5015055;28;20427;-45
2023/04/10 11:31:18;;;;;;;3.50;3.10;;;;;;;;;;5005725;28;21131;-45
2023/04/10 11:33:48;;;;;;;3.80;3.50;;;;;;;;;;5013567;28;20417;-44
2023/04/10 11:36:16;;;;;;;3.17;2.97;;;;;;;;;;5015245;28;20648;-45
2023/04/10 11:38:52;;;;;;;3.93;3.53;;;;;;;;;;5013431;28;20542;-45
2023/04/10 11:41:18;;;;;;;3.27;3.00;;;;;;;;;;5015176;28;20440;-44
2023/04/10 11:43:45;;;;;;;3.37;3.13;;;;;;;;;;5013740;28;20954;-45
2023/04/10 11:46:11;;;;;;;3.97;3.00;;;;;;;;;;5018331;28;20424;-45
2023/04/10 11:48:37;;;;;;;3.30;3.10;;;;;;;;;;5009400;28;20429;-44
2023/04/10 11:51:07;;;;;;;3.43;3.23;;;;;;;;;;5013717;28;20469;-44
2023/04/10 11:53:33;;;;;;;4.23;3.90;;;;;;;;;;5012051;28;20409;-45
2023/04/10 11:55:59;;;;;;;3.27;2.97;;;;;;;;;;5014869;28;20769;-45
2023/04/10 11:58:26;;;;;;;3.77;3.47;;;;;;;;;;5015382;28;20421;-45
2023/04/10 12:01:13;;;;;;;3.43;3.13;;;;;;;;;;5009388;28;20419;-45
2023/04/10 12:03:43;;;;;;;3.23;3.03;;;;;;;;;;5014692;28;20469;-45
2023/04/10 12:06:12;;;;;;;4.23;3.67;;;;;;;;;;5014718;28;20462;-45
2023/04/10 12:08:40;;;;;;;3.57;3.20;;;;;;;;;;5014419;28;20444;-45
2023/04/10 12:11:06;;;;;;;3.73;3.27;;;;;;;;;;5014216;28;20461;-45
2023/04/10 12:13:32;;;;;;;2.90;2.70;;;;;;;;;;5014186;28;20473;-45
2023/04/10 12:16:00;;;;;;;3.50;3.30;;;;;;;;;;5019211;28;20423;-45
2023/04/10 12:18:26;;;;;;;3.47;3.27;;;;;;;;;;5019448;28;20529;-45
2023/04/10 12:20:55;;;;;;;3.60;3.30;;;;;;;;;;5013672;28;20477;-45
2023/04/10 12:23:22;;;;;;;3.20;3.00;;;;;;;;;;5014697;28;20422;-46
2023/04/10 12:25:48;;;;;;;3.60;3.30;;;;;;;;;;5009970;28;20906;-47
2023/04/10 12:28:18;;;;;;;3.00;2.80;;;;;;;;;;5008922;28;20453;-45
2023/04/10 12:30:48;;;;;;;3.07;2.83;;;;;;;;;;5011279;28;20479;-45
2023/04/10 12:33:14;;;;;;;3.23;2.93;;;;;;;;;;5011293;28;20459;-45
2023/04/10 12:35:41;;;;;;;3.40;3.20;;;;;;;;;;5013919;28;20776;-47
2023/04/10 12:38:07;;;;;;;3.50;3.20;;;;;;;;;;5013570;28;20860;-45
2023/04/10 12:40:33;;;;;;;3.57;3.27;;;;;;;;;;5012593;28;20426;-46
2023/04/10 12:42:59;;;;;;;3.17;2.97;;;;;;;;;;5007889;28;20894;-45
2023/04/10 12:45:41;;;;;;;2.90;2.70;;;;;;;;;;5013220;28;20430;-45
2023/04/10 12:48:07;;;;;;;3.10;2.90;;;;;;;;;;5009064;28;20457;-45
2023/04/10 12:50:34;;;;;;;3.07;2.87;;;;;;;;;;5014219;28;20454;-45
2023/04/10 12:53:11;;;;;;;3.00;2.80;;;;;;;;;;5008477;28;21053;-46
2023/04/10 12:55:37;;;;;;;2.83;2.63;;;;;;;;;;5006260;28;20432;-45
2023/04/10 12:58:18;;;;;;;2.60;2.40;;;;;;;;;;5011923;28;20426;-45
2023/04/10 13:00:45;;;;;;;2.37;2.10;;;;;;;;;;5008809;28;20427;-45
2023/04/10 13:03:11;;;;;;;2.57;2.37;;;;;;;;;;5012348;28;20945;-45
2023/04/10 13:05:37;;;;;;;2.53;2.33;;;;;;;;;;5011151;28;20910;-45
2023/04/10 13:08:03;;;;;;;2.73;2.53;;;;;;;;;;5015547;28;20446;-45
2023/04/10 13:10:29;;;;;;;2.83;2.50;;;;;;;;;;5016962;28;20459;-45
2023/04/10 13:12:55;;;;;;;2.27;2.17;;;;;;;;;;5013151;28;20412;-45
2023/04/10 13:15:21;;;;;;;2.60;2.40;;;;;;;;;;5012301;28;20443;-45
2023/04/10 13:17:47;;;;;;;2.67;2.47;;;;;;;;;;5012660;28;20522;-45
2023/04/10 13:20:13;;;;;;;2.60;2.40;;;;;;;;;;5013198;28;20401;-44
2023/04/10 13:22:39;;;;;;;2.57;2.37;;;;;;;;;;5012379;28;20468;-45
2023/04/10 13:25:05;;;;;;;2.80;2.60;;;;;;;;;;5012884;28;20408;-45
2023/04/10 13:27:31;;;;;;;2.50;2.30;;;;;;;;;;5012653;28;20576;-44
2023/04/10 13:29:57;;;;;;;2.50;2.30;;;;;;;;;;5012154;28;20496;-45
2023/04/10 13:32:23;;;;;;;2.47;2.37;;;;;;;;;;5012711;28;20462;-45
2023/04/10 13:34:49;;;;;;;3.97;2.67;;;;;;;;;;5012553;28;21005;-45
2023/04/10 13:37:15;;;;;;;2.50;2.30;;;;;;;;;;5012600;28;20825;-45
2023/04/10 13:39:42;;;;;;;2.63;2.40;;;;;;;;;;5015078;28;20436;-45
2023/04/10 13:42:08;;;;;;;2.90;2.70;;;;;;;;;;5006445;28;20416;-44
2023/04/10 13:44:34;;;;;;;2.60;2.40;;;;;;;;;;5011572;28;20408;-45
2023/04/10 13:47:00;;;;;;;3.10;2.80;;;;;;;;;;5012419;28;20981;-45
2023/04/10 13:49:29;;;;;;;2.67;2.47;;;;;;;;;;5012439;28;20470;-45
2023/04/10 13:51:55;;;;;;;2.60;2.40;;;;;;;;;;5012375;28;20469;-45
2023/04/10 13:54:21;;;;;;;2.60;2.40;;;;;;;;;;5006603;28;20916;-45
2023/04/10 13:56:47;;;;;;;3.27;2.97;;;;;;;;;;5010494;28;20444;-45
2023/04/10 13:59:13;;;;;;;2.83;2.70;;;;;;;;;;5012382;28;20401;-45
2023/04/10 14:01:39;;;;;;;3.20;2.93;;;;;;;;;;5008268;28;20424;-45
2023/04/10 14:04:05;;;;;;;2.77;2.57;;;;;;;;;;5012042;28;20401;-46
2023/04/10 14:06:31;;;;;;;3.23;3.03;;;;;;;;;;5012269;28;20408;-44
2023/04/10 14:08:57;;;;;;;3.13;2.83;;;;;;;;;;5009482;28;20990;-45
2023/04/10 14:11:23;;;;;;;3.07;2.87;;;;;;;;;;5017163;28;20464;-45
2023/04/10 14:13:49;;;;;;;2.60;2.50;;;;;;;;;;5012001;28;20485;-45
2023/04/10 14:16:15;;;;;;;2.77;2.57;;;;;;;;;;5012168;28;20426;-45
2023/04/10 14:18:41;;;;;;;3.20;2.90;;;;;;;;;;5011581;28;20868;-45
2023/04/10 14:21:07;;;;;;;4.47;2.80;;;;;;;;;;5009555;28;20444;-45
2023/04/10 14:23:33;;;;;;;3.10;2.90;;;;;;;;;;5005030;28;20478;-45
2023/04/10 14:26:00;;;;;;;3.50;3.20;;;;;;;;;;5001946;28;20522;-45
2023/04/10 14:28:26;;;;;;;3.07;2.87;;;;;;;;;;5011942;28;20510;-45
2023/04/10 14:30:52;;;;;;;3.23;3.00;;;;;;;;;;5011871;28;20975;-44